sensor_id;sensor_type;location;lat;lon;timestamp;P1;durP1;ratioP1;P2;durP2;ratioP2
37239;SDS011;23130;48.760;9.178;2023-02-21T00:01:16;5.07;;;1.58;;
37239;SDS011;23130;48.760;9.178;2023-02-21T00:04:00;3.50;;;1.45;;
37239;SDS011;23130;48.760;9.178;2023-02-21T00:06:44;4.75;;;1.45;;
37239;SDS011;23130;48.760;9.178;2023-02-21T00:09:28;4.00;;;1.58;;
37239;SDS011;23130;48.760;9.178;2023-02-21T00:12:13;2.75;;;1.60;;
37239;SDS011;23130;48.760;9.178;2023-02-21T00:14:57;3.65;;;1.10;;
37239;SDS011;23130;48.760;9.178;2023-02-21T00:17:41;3.03;;;1.20;;
37239;SDS011;23130;48.760;9.178;2023-02-21T00:20:26;5.43;;;1.70;;
37239;SDS011;23130;48.760;9.178;2023-02-21T00:23:10;6.15;;;1.58;;
37239;SDS011;23130;48.760;9.178;2023-02-21T00:25:54;4.18;;;1.10;;
37239;SDS011;23130;48.760;9.178;2023-02-21T00:28:38;4.45;;;1.63;;
37239;SDS011;23130;48.760;9.178;2023-02-21T00:31:22;4.03;;;1.38;;
37239;SDS011;23130;48.760;9.178;2023-02-21T00:34:06;5.00;;;1.25;;
37239;SDS011;23130;48.760;9.178;2023-02-21T00:36:53;3.30;;;1.20;;
37239;SDS011;23130;48.760;9.178;2023-02-21T00:39:37;7.22;;;1.67;;
37239;SDS011;23130;48.760;9.178;2023-02-21T00:42:22;4.72;;;1.40;;
37239;SDS011;23130;48.760;9.178;2023-02-21T00:45:06;2.30;;;1.20;;
37239;SDS011;23130;48.760;9.178;2023-02-21T00:47:50;3.20;;;1.40;;
37239;SDS011;23130;48.760;9.178;2023-02-21T00:50:34;3.72;;;1.38;;
37239;SDS011;23130;48.760;9.178;2023-02-21T00:53:18;5.28;;;1.33;;
37239;SDS011;23130;48.760;9.178;2023-02-21T00:56:03;2.10;;;1.10;;
37239;SDS011;23130;48.760;9.178;2023-02-21T00:58:47;3.45;;;1.10;;
37239;SDS011;23130;48.760;9.178;2023-02-21T01:01:31;3.53;;;0.88;;
37239;SDS011;23130;48.760;9.178;2023-02-21T01:04:15;2.00;;;0.90;;
37239;SDS011;23130;48.760;9.178;2023-02-21T01:06:59;3.25;;;1.77;;
37239;SDS011;23130;48.760;9.178;2023-02-21T01:09:43;3.58;;;1.20;;
37239;SDS011;23130;48.760;9.178;2023-02-21T01:12:27;4.03;;;1.35;;
37239;SDS011;23130;48.760;9.178;2023-02-21T01:15:12;3.72;;;1.25;;
37239;SDS011;23130;48.760;9.178;2023-02-21T01:17:57;3.13;;;1.30;;
37239;SDS011;23130;48.760;9.178;2023-02-21T01:20:41;2.35;;;1.15;;
37239;SDS011;23130;48.760;9.178;2023-02-21T01:23:25;3.25;;;1.30;;
37239;SDS011;23130;48.760;9.178;2023-02-21T01:26:09;2.72;;;0.88;;
37239;SDS011;23130;48.760;9.178;2023-02-21T01:28:54;1.90;;;1.08;;
37239;SDS011;23130;48.760;9.178;2023-02-21T01:31:38;3.35;;;1.27;;
37239;SDS011;23130;48.760;9.178;2023-02-21T01:34:22;2.72;;;1.15;;
37239;SDS011;23130;48.760;9.178;2023-02-21T01:37:06;2.95;;;1.65;;
37239;SDS011;23130;48.760;9.178;2023-02-21T01:39:50;3.78;;;1.10;;
37239;SDS011;23130;48.760;9.178;2023-02-21T01:42:34;4.43;;;1.45;;
37239;SDS011;23130;48.760;9.178;2023-02-21T01:48:06;3.15;;;1.25;;
37239;SDS011;23130;48.760;9.178;2023-02-21T01:50:57;3.03;;;1.30;;
37239;SDS011;23130;48.760;9.178;2023-02-21T01:53:43;4.57;;;1.10;;
37239;SDS011;23130;48.760;9.178;2023-02-21T01:56:28;5.72;;;1.30;;
37239;SDS011;23130;48.760;9.178;2023-02-21T01:59:14;2.42;;;1.02;;
37239;SDS011;23130;48.760;9.178;2023-02-21T02:05:12;2.55;;;1.20;;
37239;SDS011;23130;48.760;9.178;2023-02-21T02:07:57;2.70;;;1.08;;
37239;SDS011;23130;48.760;9.178;2023-02-21T02:10:41;3.17;;;1.08;;
37239;SDS011;23130;48.760;9.178;2023-02-21T02:13:52;2.45;;;0.90;;
37239;SDS011;23130;48.760;9.178;2023-02-21T02:16:40;2.25;;;1.15;;
37239;SDS011;23130;48.760;9.178;2023-02-21T02:33:07;3.72;;;0.93;;
37239;SDS011;23130;48.760;9.178;2023-02-21T02:35:49;2.35;;;1.02;;
37239;SDS011;23130;48.760;9.178;2023-02-21T02:38:37;2.63;;;0.85;;
37239;SDS011;23130;48.760;9.178;2023-02-21T02:41:23;7.18;;;1.30;;
37239;SDS011;23130;48.760;9.178;2023-02-21T02:44:01;3.97;;;0.88;;
37239;SDS011;23130;48.760;9.178;2023-02-21T02:46:37;2.50;;;0.70;;
37239;SDS011;23130;48.760;9.178;2023-02-21T02:49:13;5.30;;;0.98;;
37239;SDS011;23130;48.760;9.178;2023-02-21T02:51:44;3.00;;;0.77;;
37239;SDS011;23130;48.760;9.178;2023-02-21T02:54:10;1.67;;;0.88;;
37239;SDS011;23130;48.760;9.178;2023-02-21T02:56:36;0.95;;;0.50;;
37239;SDS011;23130;48.760;9.178;2023-02-21T02:59:06;2.28;;;1.33;;
37239;SDS011;23130;48.760;9.178;2023-02-21T03:10:27;5.05;;;1.17;;
37239;SDS011;23130;48.760;9.178;2023-02-21T03:16:15;2.17;;;1.33;;
37239;SDS011;23130;48.760;9.178;2023-02-21T03:18:43;3.80;;;1.48;;
37239;SDS011;23130;48.760;9.178;2023-02-21T03:21:24;4.20;;;1.35;;
37239;SDS011;23130;48.760;9.178;2023-02-21T03:23:53;3.17;;;0.90;;
37239;SDS011;23130;48.760;9.178;2023-02-21T03:26:22;1.67;;;1.00;;
37239;SDS011;23130;48.760;9.178;2023-02-21T03:28:50;1.52;;;0.90;;
37239;SDS011;23130;48.760;9.178;2023-02-21T03:31:16;3.63;;;1.55;;
37239;SDS011;23130;48.760;9.178;2023-02-21T03:33:45;4.13;;;1.23;;
37239;SDS011;23130;48.760;9.178;2023-02-21T03:36:11;5.20;;;1.58;;
37239;SDS011;23130;48.760;9.178;2023-02-21T03:38:38;1.27;;;0.70;;
37239;SDS011;23130;48.760;9.178;2023-02-21T03:41:04;1.35;;;0.77;;
37239;SDS011;23130;48.760;9.178;2023-02-21T03:43:30;1.88;;;0.90;;
37239;SDS011;23130;48.760;9.178;2023-02-21T03:45:56;1.45;;;0.88;;
37239;SDS011;23130;48.760;9.178;2023-02-21T03:48:22;3.78;;;1.17;;
37239;SDS011;23130;48.760;9.178;2023-02-21T03:50:47;2.95;;;1.25;;
37239;SDS011;23130;48.760;9.178;2023-02-21T03:53:13;5.55;;;0.98;;
37239;SDS011;23130;48.760;9.178;2023-02-21T03:55:38;3.42;;;1.00;;
37239;SDS011;23130;48.760;9.178;2023-02-21T03:58:04;3.70;;;1.08;;
37239;SDS011;23130;48.760;9.178;2023-02-21T04:00:30;2.10;;;1.05;;
37239;SDS011;23130;48.760;9.178;2023-02-21T04:02:55;2.95;;;1.25;;
37239;SDS011;23130;48.760;9.178;2023-02-21T04:05:21;4.82;;;1.10;;
37239;SDS011;23130;48.760;9.178;2023-02-21T04:07:46;2.95;;;1.15;;
37239;SDS011;23130;48.760;9.178;2023-02-21T04:10:12;1.77;;;0.73;;
37239;SDS011;23130;48.760;9.178;2023-02-21T04:12:38;2.50;;;0.60;;
37239;SDS011;23130;48.760;9.178;2023-02-21T04:15:03;3.35;;;1.00;;
37239;SDS011;23130;48.760;9.178;2023-02-21T04:17:29;2.80;;;0.90;;
37239;SDS011;23130;48.760;9.178;2023-02-21T04:19:55;3.70;;;1.25;;
37239;SDS011;23130;48.760;9.178;2023-02-21T04:22:20;2.72;;;0.90;;
37239;SDS011;23130;48.760;9.178;2023-02-21T04:24:46;2.53;;;0.85;;
37239;SDS011;23130;48.760;9.178;2023-02-21T04:27:12;3.65;;;0.93;;
37239;SDS011;23130;48.760;9.178;2023-02-21T04:29:38;4.22;;;0.80;;
37239;SDS011;23130;48.760;9.178;2023-02-21T04:32:04;3.75;;;1.08;;
37239;SDS011;23130;48.760;9.178;2023-02-21T04:34:29;3.83;;;1.00;;
37239;SDS011;23130;48.760;9.178;2023-02-21T04:36:55;3.95;;;1.00;;
37239;SDS011;23130;48.760;9.178;2023-02-21T04:39:20;3.22;;;1.25;;
37239;SDS011;23130;48.760;9.178;2023-02-21T04:41:46;2.75;;;0.90;;
37239;SDS011;23130;48.760;9.178;2023-02-21T04:44:12;3.83;;;0.73;;
37239;SDS011;23130;48.760;9.178;2023-02-21T04:46:37;3.83;;;1.80;;
37239;SDS011;23130;48.760;9.178;2023-02-21T04:49:03;3.17;;;1.35;;
37239;SDS011;23130;48.760;9.178;2023-02-21T04:51:28;5.07;;;1.15;;
37239;SDS011;23130;48.760;9.178;2023-02-21T04:53:54;3.10;;;0.80;;
37239;SDS011;23130;48.760;9.178;2023-02-21T04:56:21;3.40;;;1.20;;
37239;SDS011;23130;48.760;9.178;2023-02-21T04:58:48;3.83;;;0.80;;
37239;SDS011;23130;48.760;9.178;2023-02-21T05:01:14;2.92;;;1.02;;
37239;SDS011;23130;48.760;9.178;2023-02-21T05:03:41;3.00;;;1.17;;
37239;SDS011;23130;48.760;9.178;2023-02-21T05:06:06;2.33;;;1.23;;
37239;SDS011;23130;48.760;9.178;2023-02-21T05:08:32;5.18;;;1.00;;
37239;SDS011;23130;48.760;9.178;2023-02-21T05:10:59;2.55;;;1.27;;
37239;SDS011;23130;48.760;9.178;2023-02-21T05:13:24;4.13;;;1.30;;
37239;SDS011;23130;48.760;9.178;2023-02-21T05:15:50;3.63;;;1.00;;
37239;SDS011;23130;48.760;9.178;2023-02-21T05:18:16;3.38;;;1.10;;
37239;SDS011;23130;48.760;9.178;2023-02-21T05:20:46;2.35;;;1.30;;
37239;SDS011;23130;48.760;9.178;2023-02-21T05:23:16;1.65;;;0.80;;
37239;SDS011;23130;48.760;9.178;2023-02-21T05:25:43;4.30;;;1.20;;
37239;SDS011;23130;48.760;9.178;2023-02-21T05:28:09;3.28;;;1.00;;
37239;SDS011;23130;48.760;9.178;2023-02-21T05:30:35;2.05;;;1.17;;
37239;SDS011;23130;48.760;9.178;2023-02-21T05:33:00;5.65;;;2.58;;
37239;SDS011;23130;48.760;9.178;2023-02-21T05:35:26;5.20;;;1.30;;
37239;SDS011;23130;48.760;9.178;2023-02-21T05:37:51;4.45;;;1.15;;
37239;SDS011;23130;48.760;9.178;2023-02-21T05:40:17;3.55;;;1.08;;
37239;SDS011;23130;48.760;9.178;2023-02-21T05:42:43;5.00;;;1.38;;
37239;SDS011;23130;48.760;9.178;2023-02-21T05:45:09;3.70;;;1.27;;
37239;SDS011;23130;48.760;9.178;2023-02-21T05:47:35;3.35;;;1.67;;
37239;SDS011;23130;48.760;9.178;2023-02-21T05:50:01;2.00;;;1.08;;
37239;SDS011;23130;48.760;9.178;2023-02-21T05:52:27;3.65;;;1.20;;
37239;SDS011;23130;48.760;9.178;2023-02-21T05:54:53;4.97;;;1.55;;
37239;SDS011;23130;48.760;9.178;2023-02-21T05:57:18;7.55;;;2.83;;
37239;SDS011;23130;48.760;9.178;2023-02-21T05:59:44;5.93;;;1.55;;
37239;SDS011;23130;48.760;9.178;2023-02-21T06:02:12;3.70;;;1.48;;
37239;SDS011;23130;48.760;9.178;2023-02-21T06:04:38;5.45;;;1.55;;
37239;SDS011;23130;48.760;9.178;2023-02-21T06:07:04;3.88;;;1.60;;
37239;SDS011;23130;48.760;9.178;2023-02-21T06:09:30;2.83;;;1.17;;
37239;SDS011;23130;48.760;9.178;2023-02-21T06:11:55;2.70;;;1.10;;
37239;SDS011;23130;48.760;9.178;2023-02-21T06:14:21;4.18;;;1.55;;
37239;SDS011;23130;48.760;9.178;2023-02-21T06:16:47;3.40;;;1.42;;
37239;SDS011;23130;48.760;9.178;2023-02-21T06:19:13;2.13;;;1.20;;
37239;SDS011;23130;48.760;9.178;2023-02-21T06:21:40;4.78;;;1.67;;
37239;SDS011;23130;48.760;9.178;2023-02-21T06:24:09;3.45;;;1.60;;
37239;SDS011;23130;48.760;9.178;2023-02-21T06:26:36;3.08;;;1.50;;
37239;SDS011;23130;48.760;9.178;2023-02-21T06:29:03;2.92;;;1.52;;
37239;SDS011;23130;48.760;9.178;2023-02-21T06:31:29;4.07;;;1.20;;
37239;SDS011;23130;48.760;9.178;2023-02-21T06:33:55;5.13;;;1.38;;
37239;SDS011;23130;48.760;9.178;2023-02-21T06:36:22;4.32;;;1.77;;
37239;SDS011;23130;48.760;9.178;2023-02-21T06:38:50;6.82;;;1.65;;
37239;SDS011;23130;48.760;9.178;2023-02-21T06:41:18;4.88;;;2.35;;
37239;SDS011;23130;48.760;9.178;2023-02-21T06:43:48;6.53;;;1.38;;
37239;SDS011;23130;48.760;9.178;2023-02-21T06:46:18;4.72;;;1.33;;
37239;SDS011;23130;48.760;9.178;2023-02-21T06:48:45;4.45;;;1.90;;
37239;SDS011;23130;48.760;9.178;2023-02-21T06:51:10;5.07;;;2.00;;
37239;SDS011;23130;48.760;9.178;2023-02-21T06:53:38;6.20;;;2.25;;
37239;SDS011;23130;48.760;9.178;2023-02-21T06:56:04;4.80;;;2.40;;
37239;SDS011;23130;48.760;9.178;2023-02-21T06:58:30;7.03;;;1.90;;
37239;SDS011;23130;48.760;9.178;2023-02-21T07:00:56;3.83;;;1.67;;
37239;SDS011;23130;48.760;9.178;2023-02-21T07:03:21;4.78;;;1.75;;
37239;SDS011;23130;48.760;9.178;2023-02-21T07:05:47;6.18;;;2.42;;
37239;SDS011;23130;48.760;9.178;2023-02-21T07:08:12;7.32;;;2.25;;
37239;SDS011;23130;48.760;9.178;2023-02-21T07:10:38;4.07;;;2.30;;
37239;SDS011;23130;48.760;9.178;2023-02-21T07:13:03;5.40;;;2.30;;
37239;SDS011;23130;48.760;9.178;2023-02-21T07:15:29;5.82;;;2.00;;
37239;SDS011;23130;48.760;9.178;2023-02-21T07:17:54;4.63;;;1.98;;
37239;SDS011;23130;48.760;9.178;2023-02-21T07:20:20;3.38;;;1.65;;
37239;SDS011;23130;48.760;9.178;2023-02-21T07:22:46;3.45;;;1.63;;
37239;SDS011;23130;48.760;9.178;2023-02-21T07:25:13;7.55;;;2.28;;
37239;SDS011;23130;48.760;9.178;2023-02-21T07:27:47;3.78;;;1.88;;
37239;SDS011;23130;48.760;9.178;2023-02-21T07:30:13;5.32;;;2.35;;
37239;SDS011;23130;48.760;9.178;2023-02-21T07:32:39;4.88;;;2.25;;
37239;SDS011;23130;48.760;9.178;2023-02-21T07:35:05;4.30;;;2.08;;
37239;SDS011;23130;48.760;9.178;2023-02-21T07:37:31;4.75;;;2.13;;
37239;SDS011;23130;48.760;9.178;2023-02-21T07:39:56;4.88;;;2.50;;
37239;SDS011;23130;48.760;9.178;2023-02-21T07:42:23;4.32;;;2.00;;
37239;SDS011;23130;48.760;9.178;2023-02-21T07:44:53;5.50;;;2.35;;
37239;SDS011;23130;48.760;9.178;2023-02-21T07:47:20;7.63;;;2.22;;
37239;SDS011;23130;48.760;9.178;2023-02-21T07:49:46;5.78;;;2.30;;
37239;SDS011;23130;48.760;9.178;2023-02-21T07:52:12;8.63;;;3.30;;
37239;SDS011;23130;48.760;9.178;2023-02-21T07:54:37;5.75;;;2.38;;
37239;SDS011;23130;48.760;9.178;2023-02-21T07:57:03;5.80;;;2.53;;
37239;SDS011;23130;48.760;9.178;2023-02-21T07:59:28;5.97;;;2.22;;
37239;SDS011;23130;48.760;9.178;2023-02-21T08:01:55;4.38;;;1.85;;
37239;SDS011;23130;48.760;9.178;2023-02-21T08:04:20;5.75;;;2.88;;
37239;SDS011;23130;48.760;9.178;2023-02-21T08:06:47;4.60;;;2.03;;
37239;SDS011;23130;48.760;9.178;2023-02-21T08:09:13;7.55;;;2.00;;
37239;SDS011;23130;48.760;9.178;2023-02-21T08:11:39;5.25;;;2.20;;
37239;SDS011;23130;48.760;9.178;2023-02-21T08:14:04;6.72;;;2.15;;
37239;SDS011;23130;48.760;9.178;2023-02-21T08:16:30;3.67;;;2.10;;
37239;SDS011;23130;48.760;9.178;2023-02-21T08:18:56;6.18;;;2.53;;
37239;SDS011;23130;48.760;9.178;2023-02-21T08:21:21;15.38;;;4.45;;
37239;SDS011;23130;48.760;9.178;2023-02-21T08:23:47;15.18;;;3.78;;
37239;SDS011;23130;48.760;9.178;2023-02-21T08:26:13;9.57;;;3.40;;
37239;SDS011;23130;48.760;9.178;2023-02-21T08:28:38;11.70;;;4.00;;
37239;SDS011;23130;48.760;9.178;2023-02-21T08:31:04;7.10;;;3.50;;
37239;SDS011;23130;48.760;9.178;2023-02-21T08:33:31;5.30;;;3.00;;
37239;SDS011;23130;48.760;9.178;2023-02-21T08:35:56;9.77;;;3.00;;
37239;SDS011;23130;48.760;9.178;2023-02-21T08:38:22;12.25;;;3.70;;
37239;SDS011;23130;48.760;9.178;2023-02-21T08:40:47;8.95;;;2.78;;
37239;SDS011;23130;48.760;9.178;2023-02-21T08:43:13;10.77;;;3.25;;
37239;SDS011;23130;48.760;9.178;2023-02-21T08:45:38;7.50;;;3.90;;
37239;SDS011;23130;48.760;9.178;2023-02-21T08:48:04;8.75;;;3.50;;
37239;SDS011;23130;48.760;9.178;2023-02-21T08:50:30;10.85;;;3.97;;
37239;SDS011;23130;48.760;9.178;2023-02-21T08:52:56;7.30;;;3.75;;
37239;SDS011;23130;48.760;9.178;2023-02-21T08:55:22;10.02;;;3.58;;
37239;SDS011;23130;48.760;9.178;2023-02-21T08:57:48;8.75;;;4.30;;
37239;SDS011;23130;48.760;9.178;2023-02-21T09:00:16;10.93;;;4.18;;
37239;SDS011;23130;48.760;9.178;2023-02-21T09:02:43;6.82;;;4.65;;
37239;SDS011;23130;48.760;9.178;2023-02-21T09:05:10;15.55;;;4.40;;
37239;SDS011;23130;48.760;9.178;2023-02-21T09:07:38;9.30;;;4.05;;
37239;SDS011;23130;48.760;9.178;2023-02-21T09:10:04;7.70;;;4.43;;
37239;SDS011;23130;48.760;9.178;2023-02-21T09:12:31;12.23;;;4.57;;
37239;SDS011;23130;48.760;9.178;2023-02-21T09:14:57;7.80;;;4.75;;
37239;SDS011;23130;48.760;9.178;2023-02-21T09:17:22;5.30;;;3.38;;
37239;SDS011;23130;48.760;9.178;2023-02-21T09:19:49;10.88;;;4.07;;
37239;SDS011;23130;48.760;9.178;2023-02-21T09:22:14;10.23;;;4.50;;
37239;SDS011;23130;48.760;9.178;2023-02-21T09:24:42;6.38;;;3.97;;
37239;SDS011;23130;48.760;9.178;2023-02-21T09:27:07;12.60;;;4.43;;
37239;SDS011;23130;48.760;9.178;2023-02-21T09:29:34;12.48;;;6.22;;
37239;SDS011;23130;48.760;9.178;2023-02-21T09:32:00;11.65;;;6.28;;
37239;SDS011;23130;48.760;9.178;2023-02-21T09:34:26;20.90;;;7.05;;
37239;SDS011;23130;48.760;9.178;2023-02-21T09:36:52;12.98;;;5.72;;
37239;SDS011;23130;48.760;9.178;2023-02-21T09:39:21;14.10;;;5.40;;
37239;SDS011;23130;48.760;9.178;2023-02-21T09:41:47;9.93;;;5.35;;
37239;SDS011;23130;48.760;9.178;2023-02-21T09:44:19;15.00;;;5.35;;
37239;SDS011;23130;48.760;9.178;2023-02-21T09:46:51;11.50;;;5.65;;
37239;SDS011;23130;48.760;9.178;2023-02-21T09:49:29;13.43;;;6.22;;
37239;SDS011;23130;48.760;9.178;2023-02-21T09:56:50;10.43;;;5.55;;
37239;SDS011;23130;48.760;9.178;2023-02-21T09:59:15;12.15;;;5.53;;
37239;SDS011;23130;48.760;9.178;2023-02-21T10:02:00;11.57;;;5.10;;
37239;SDS011;23130;48.760;9.178;2023-02-21T10:13:05;11.70;;;4.80;;
37239;SDS011;23130;48.760;9.178;2023-02-21T10:20:59;13.40;;;4.88;;
37239;SDS011;23130;48.760;9.178;2023-02-21T10:26:12;11.82;;;5.45;;
37239;SDS011;23130;48.760;9.178;2023-02-21T10:28:41;8.00;;;4.72;;
37239;SDS011;23130;48.760;9.178;2023-02-21T10:31:10;10.57;;;4.45;;
37239;SDS011;23130;48.760;9.178;2023-02-21T10:33:40;13.15;;;3.85;;
37239;SDS011;23130;48.760;9.178;2023-02-21T10:36:14;7.68;;;4.25;;
37239;SDS011;23130;48.760;9.178;2023-02-21T10:38:44;10.95;;;5.13;;
37239;SDS011;23130;48.760;9.178;2023-02-21T10:41:20;8.18;;;4.00;;
37239;SDS011;23130;48.760;9.178;2023-02-21T10:43:51;8.30;;;3.90;;
37239;SDS011;23130;48.760;9.178;2023-02-21T10:48:46;6.70;;;3.20;;
37239;SDS011;23130;48.760;9.178;2023-02-21T10:51:15;6.65;;;3.58;;
37239;SDS011;23130;48.760;9.178;2023-02-21T10:53:51;8.20;;;4.05;;
37239;SDS011;23130;48.760;9.178;2023-02-21T10:56:22;9.05;;;3.15;;
37239;SDS011;23130;48.760;9.178;2023-02-21T10:58:59;9.40;;;3.22;;
37239;SDS011;23130;48.760;9.178;2023-02-21T11:01:32;4.25;;;2.53;;
37239;SDS011;23130;48.760;9.178;2023-02-21T11:04:27;4.70;;;2.50;;
37239;SDS011;23130;48.760;9.178;2023-02-21T11:07:03;5.57;;;2.83;;
37239;SDS011;23130;48.760;9.178;2023-02-21T11:09:40;4.68;;;2.72;;
37239;SDS011;23130;48.760;9.178;2023-02-21T11:17:17;6.07;;;2.55;;
37239;SDS011;23130;48.760;9.178;2023-02-21T11:22:34;8.73;;;3.03;;
37239;SDS011;23130;48.760;9.178;2023-02-21T11:27:36;6.35;;;3.45;;
37239;SDS011;23130;48.760;9.178;2023-02-21T11:30:07;12.85;;;3.72;;
37239;SDS011;23130;48.760;9.178;2023-02-21T11:32:42;10.88;;;4.15;;
37239;SDS011;23130;48.760;9.178;2023-02-21T11:37:58;6.63;;;3.08;;
37239;SDS011;23130;48.760;9.178;2023-02-21T11:40:32;6.30;;;2.78;;
37239;SDS011;23130;48.760;9.178;2023-02-21T11:43:23;7.63;;;3.25;;
37239;SDS011;23130;48.760;9.178;2023-02-21T11:45:59;8.55;;;3.10;;
37239;SDS011;23130;48.760;9.178;2023-02-21T11:52:07;5.30;;;3.00;;
37239;SDS011;23130;48.760;9.178;2023-02-21T11:54:37;8.00;;;3.80;;
37239;SDS011;23130;48.760;9.178;2023-02-21T11:57:14;8.82;;;3.25;;
37239;SDS011;23130;48.760;9.178;2023-02-21T12:05:28;5.63;;;3.08;;
37239;SDS011;23130;48.760;9.178;2023-02-21T12:11:04;3.13;;;2.17;;
37239;SDS011;23130;48.760;9.178;2023-02-21T12:21:58;4.00;;;1.73;;
37239;SDS011;23130;48.760;9.178;2023-02-21T12:27:06;3.58;;;1.65;;
37239;SDS011;23130;48.760;9.178;2023-02-21T12:36:13;4.43;;;1.55;;
37239;SDS011;23130;48.760;9.178;2023-02-21T12:45:04;3.97;;;1.42;;
37239;SDS011;23130;48.760;9.178;2023-02-21T12:48:23;3.75;;;1.70;;
37239;SDS011;23130;48.760;9.178;2023-02-21T12:50:52;3.42;;;1.60;;
37239;SDS011;23130;48.760;9.178;2023-02-21T12:53:24;3.15;;;1.58;;
37239;SDS011;23130;48.760;9.178;2023-02-21T12:56:05;2.85;;;1.65;;
37239;SDS011;23130;48.760;9.178;2023-02-21T12:58:41;17.73;;;6.63;;
37239;SDS011;23130;48.760;9.178;2023-02-21T13:01:19;3.35;;;1.60;;
37239;SDS011;23130;48.760;9.178;2023-02-21T13:03:52;3.38;;;1.35;;
37239;SDS011;23130;48.760;9.178;2023-02-21T13:06:42;3.20;;;1.02;;
37239;SDS011;23130;48.760;9.178;2023-02-21T13:12:08;1.95;;;0.82;;
37239;SDS011;23130;48.760;9.178;2023-02-21T13:14:45;3.08;;;1.00;;
37239;SDS011;23130;48.760;9.178;2023-02-21T13:17:15;1.98;;;0.85;;
37239;SDS011;23130;48.760;9.178;2023-02-21T13:19:46;2.25;;;0.70;;
37239;SDS011;23130;48.760;9.178;2023-02-21T13:22:30;2.63;;;0.77;;
37239;SDS011;23130;48.760;9.178;2023-02-21T13:25:20;4.78;;;1.27;;
37239;SDS011;23130;48.760;9.178;2023-02-21T13:27:55;1.80;;;0.73;;
37239;SDS011;23130;48.760;9.178;2023-02-21T13:32:58;5.18;;;0.80;;
37239;SDS011;23130;48.760;9.178;2023-02-21T13:35:31;1.75;;;1.02;;
37239;SDS011;23130;48.760;9.178;2023-02-21T13:37:59;2.60;;;0.70;;
37239;SDS011;23130;48.760;9.178;2023-02-21T13:40:41;2.63;;;1.13;;
37239;SDS011;23130;48.760;9.178;2023-02-21T13:43:17;2.88;;;0.70;;
37239;SDS011;23130;48.760;9.178;2023-02-21T13:45:53;1.88;;;0.60;;
37239;SDS011;23130;48.760;9.178;2023-02-21T13:48:28;1.70;;;0.73;;
37239;SDS011;23130;48.760;9.178;2023-02-21T13:50:58;1.88;;;0.60;;
37239;SDS011;23130;48.760;9.178;2023-02-21T14:03:51;1.13;;;0.60;;
37239;SDS011;23130;48.760;9.178;2023-02-21T14:08:46;0.85;;;0.40;;
37239;SDS011;23130;48.760;9.178;2023-02-21T14:11:22;2.22;;;0.50;;
37239;SDS011;23130;48.760;9.178;2023-02-21T14:16:29;3.20;;;1.10;;
37239;SDS011;23130;48.760;9.178;2023-02-21T14:18:58;2.30;;;0.40;;
37239;SDS011;23130;48.760;9.178;2023-02-21T14:24:10;1.60;;;0.40;;
37239;SDS011;23130;48.760;9.178;2023-02-21T14:26:43;1.25;;;0.38;;
37239;SDS011;23130;48.760;9.178;2023-02-21T14:36:56;1.25;;;0.30;;
37239;SDS011;23130;48.760;9.178;2023-02-21T14:39:25;1.08;;;0.40;;
37239;SDS011;23130;48.760;9.178;2023-02-21T14:42:16;1.15;;;0.38;;
37239;SDS011;23130;48.760;9.178;2023-02-21T14:50:37;1.65;;;0.50;;
37239;SDS011;23130;48.760;9.178;2023-02-21T15:12:47;3.45;;;1.20;;
37239;SDS011;23130;48.760;9.178;2023-02-21T15:15:21;4.30;;;0.90;;
37239;SDS011;23130;48.760;9.178;2023-02-21T15:21:03;8.45;;;1.35;;
37239;SDS011;23130;48.760;9.178;2023-02-21T15:23:48;5.28;;;1.23;;
37239;SDS011;23130;48.760;9.178;2023-02-21T15:26:36;1.83;;;1.00;;
37239;SDS011;23130;48.760;9.178;2023-02-21T15:29:03;3.65;;;0.98;;
37239;SDS011;23130;48.760;9.178;2023-02-21T15:31:50;5.28;;;1.23;;
37239;SDS011;23130;48.760;9.178;2023-02-21T15:36:45;3.65;;;1.38;;
37239;SDS011;23130;48.760;9.178;2023-02-21T15:39:23;2.90;;;0.90;;
37239;SDS011;23130;48.760;9.178;2023-02-21T15:41:54;4.28;;;1.08;;
37239;SDS011;23130;48.760;9.178;2023-02-21T15:44:27;3.58;;;1.20;;
37239;SDS011;23130;48.760;9.178;2023-02-21T15:46:57;4.40;;;1.05;;
37239;SDS011;23130;48.760;9.178;2023-02-21T15:49:26;1.98;;;1.00;;
37239;SDS011;23130;48.760;9.178;2023-02-21T15:51:55;2.03;;;0.80;;
37239;SDS011;23130;48.760;9.178;2023-02-21T15:54:22;5.22;;;1.40;;
37239;SDS011;23130;48.760;9.178;2023-02-21T15:57:04;4.00;;;0.82;;
37239;SDS011;23130;48.760;9.178;2023-02-21T15:59:31;3.35;;;0.90;;
37239;SDS011;23130;48.760;9.178;2023-02-21T16:04:45;3.25;;;1.15;;
37239;SDS011;23130;48.760;9.178;2023-02-21T16:07:16;3.42;;;0.80;;
37239;SDS011;23130;48.760;9.178;2023-02-21T16:10:07;5.50;;;1.30;;
37239;SDS011;23130;48.760;9.178;2023-02-21T16:12:42;3.80;;;1.00;;
37239;SDS011;23130;48.760;9.178;2023-02-21T16:17:37;5.78;;;1.65;;
37239;SDS011;23130;48.760;9.178;2023-02-21T16:22:39;4.28;;;1.20;;
37239;SDS011;23130;48.760;9.178;2023-02-21T16:27:55;5.07;;;1.17;;
37239;SDS011;23130;48.760;9.178;2023-02-21T16:30:25;4.18;;;1.30;;
37239;SDS011;23130;48.760;9.178;2023-02-21T16:32:53;4.50;;;1.13;;
37239;SDS011;23130;48.760;9.178;2023-02-21T16:35:30;3.42;;;1.00;;
37239;SDS011;23130;48.760;9.178;2023-02-21T16:37:57;4.72;;;1.52;;
37239;SDS011;23130;48.760;9.178;2023-02-21T16:40:30;3.83;;;1.15;;
37239;SDS011;23130;48.760;9.178;2023-02-21T16:42:58;4.65;;;1.05;;
37239;SDS011;23130;48.760;9.178;2023-02-21T16:45:27;5.57;;;1.38;;
37239;SDS011;23130;48.760;9.178;2023-02-21T16:48:05;5.85;;;2.13;;
37239;SDS011;23130;48.760;9.178;2023-02-21T16:50:37;2.40;;;1.38;;
37239;SDS011;23130;48.760;9.178;2023-02-21T16:53:04;4.70;;;1.40;;
37239;SDS011;23130;48.760;9.178;2023-02-21T16:55:30;3.63;;;1.30;;
37239;SDS011;23130;48.760;9.178;2023-02-21T16:58:03;3.10;;;1.73;;
37239;SDS011;23130;48.760;9.178;2023-02-21T17:00:31;5.85;;;1.50;;
37239;SDS011;23130;48.760;9.178;2023-02-21T17:02:57;2.60;;;1.40;;
37239;SDS011;23130;48.760;9.178;2023-02-21T17:05:23;4.72;;;1.42;;
37239;SDS011;23130;48.760;9.178;2023-02-21T17:07:49;5.07;;;1.20;;
37239;SDS011;23130;48.760;9.178;2023-02-21T17:10:16;3.63;;;1.10;;
37239;SDS011;23130;48.760;9.178;2023-02-21T17:12:43;7.60;;;1.70;;
37239;SDS011;23130;48.760;9.178;2023-02-21T17:15:08;4.30;;;1.15;;
37239;SDS011;23130;48.760;9.178;2023-02-21T17:17:35;6.75;;;1.50;;
37239;SDS011;23130;48.760;9.178;2023-02-21T17:20:01;2.90;;;1.38;;
37239;SDS011;23130;48.760;9.178;2023-02-21T17:22:26;4.32;;;1.33;;
37239;SDS011;23130;48.760;9.178;2023-02-21T17:24:52;2.90;;;1.27;;
37239;SDS011;23130;48.760;9.178;2023-02-21T17:27:18;3.42;;;1.40;;
37239;SDS011;23130;48.760;9.178;2023-02-21T17:29:45;4.00;;;1.10;;
37239;SDS011;23130;48.760;9.178;2023-02-21T17:32:11;6.28;;;1.70;;
37239;SDS011;23130;48.760;9.178;2023-02-21T17:34:37;4.50;;;1.42;;
37239;SDS011;23130;48.760;9.178;2023-02-21T17:37:03;6.45;;;2.42;;
37239;SDS011;23130;48.760;9.178;2023-02-21T17:39:28;4.63;;;1.58;;
37239;SDS011;23130;48.760;9.178;2023-02-21T17:41:55;5.05;;;1.63;;
37239;SDS011;23130;48.760;9.178;2023-02-21T17:44:21;4.78;;;1.38;;
37239;SDS011;23130;48.760;9.178;2023-02-21T17:46:51;4.40;;;2.40;;
37239;SDS011;23130;48.760;9.178;2023-02-21T17:49:19;3.45;;;1.63;;
37239;SDS011;23130;48.760;9.178;2023-02-21T17:51:49;3.67;;;1.73;;
37239;SDS011;23130;48.760;9.178;2023-02-21T17:54:15;4.25;;;1.83;;
37239;SDS011;23130;48.760;9.178;2023-02-21T17:56:43;4.53;;;1.52;;
37239;SDS011;23130;48.760;9.178;2023-02-21T17:59:08;5.88;;;1.80;;
37239;SDS011;23130;48.760;9.178;2023-02-21T18:01:34;5.65;;;2.03;;
37239;SDS011;23130;48.760;9.178;2023-02-21T18:04:00;4.75;;;1.58;;
37239;SDS011;23130;48.760;9.178;2023-02-21T18:06:26;5.60;;;2.40;;
37239;SDS011;23130;48.760;9.178;2023-02-21T18:08:53;5.78;;;2.63;;